Time;durP1;ratioP1;P1;durP2;ratioP2;P2;SDS_P1;SDS_P2;PMS_P1;PMS_P2;Temp;Humidity;BMP_temperature;BMP_pressure;BME280_temperature;BME280_humidity;BME280_pressure;Samples;Min_cycle;Max_cycle;Signal;HPM_P1;HPM_P2
2021/11/13 00:00:26;;;;;;;72.00;48.90;;;;;;;-0.10;86.37;100944.55;1456705;90;21377;-87
2021/11/13 00:02:54;;;;;;;85.07;52.90;;;;;;;-0.10;86.08;100936.73;1451412;88;21538;-87
2021/11/13 00:05:22;;;;;;;77.95;50.58;;;;;;;-0.09;85.91;100935.81;1456067;90;22473;-87
2021/11/13 00:07:49;;;;;;;83.52;51.95;;;;;;;-0.11;86.10;100935.06;1456243;90;21549;-88
2021/11/13 00:10:20;;;;;;;75.52;47.90;;;;;;;-0.11;86.04;100931.16;1447389;90;22604;-87
2021/11/13 00:12:47;;;;;;;68.42;43.42;;;;;;;-0.09;86.16;100938.42;1452364;90;21621;-88
2021/11/13 00:15:19;;;;;;;72.67;46.55;;;;;;;-0.03;86.86;100940.78;1439324;90;21376;-88
2021/11/13 00:17:43;;;;;;;71.20;45.43;;;;;;;0.05;86.47;100936.98;1449461;89;21694;-88
2021/11/13 00:20:10;;;;;;;69.80;46.07;;;;;;;0.11;86.82;100936.23;1452195;90;22070;-87
2021/11/13 00:22:38;;;;;;;69.05;46.00;;;;;;;0.13;87.01;100936.19;1446490;90;22310;-89
2021/11/13 00:25:05;;;;;;;58.93;40.37;;;;;;;0.14;86.74;100929.59;1444446;90;21526;-90
2021/11/13 00:27:33;;;;;;;65.62;43.70;;;;;;;0.14;86.42;100930.05;1434899;90;21680;-89
2021/11/13 00:30:01;;;;;;;58.53;37.60;;;;;;;0.13;86.13;100920.57;1435579;90;22310;-91
2021/11/13 00:32:28;;;;;;;64.73;43.77;;;;;;;0.13;85.97;100924.47;1439939;90;22695;-90
2021/11/13 00:34:55;;;;;;;58.13;37.73;;;;;;;0.12;86.22;100921.49;1434559;91;23217;-91
2021/11/13 00:37:22;;;;;;;55.17;38.33;;;;;;;0.10;86.21;100919.41;1434790;90;22259;-90
2021/11/13 00:39:49;;;;;;;60.40;38.23;;;;;;;0.03;85.60;100925.78;1435238;91;21570;-89
2021/11/13 00:42:17;;;;;;;63.57;40.67;;;;;;;-0.05;85.34;100926.14;1439434;90;21458;-91
2021/11/13 00:44:44;;;;;;;61.50;39.30;;;;;;;-0.11;85.37;100927.25;1435174;91;22150;-89
2021/11/13 00:47:11;;;;;;;61.40;39.90;;;;;;;-0.20;85.90;100927.66;1431897;91;23524;-89
2021/11/13 00:49:38;;;;;;;56.15;38.42;;;;;;;-0.19;85.71;100922.84;1421799;91;21429;-88
2021/11/13 00:52:06;;;;;;;57.43;39.63;;;;;;;-0.16;86.24;100921.40;1434164;91;21378;-90
2021/11/13 00:54:35;;;;;;;58.23;37.58;;;;;;;-0.19;86.14;100922.84;1417683;91;21674;-90
2021/11/13 00:57:04;;;;;;;51.70;33.98;;;;;;;-0.20;86.09;100921.16;1442300;89;21627;-90
2021/11/13 00:59:32;;;;;;;54.25;35.68;;;;;;;-0.24;86.06;100918.28;1446639;90;21442;-89
2021/11/13 01:01:59;;;;;;;48.68;33.67;;;;;;;-0.26;85.71;100922.27;1446091;90;21384;-88
2021/11/13 01:04:27;;;;;;;48.48;35.35;;;;;;;-0.25;85.63;100920.50;1443725;90;21317;-89
2021/11/13 01:06:54;;;;;;;60.12;38.53;;;;;;;-0.28;85.47;100919.34;1442431;89;22359;-88
2021/11/13 01:09:21;;;;;;;53.52;36.00;;;;;;;-0.33;85.32;100910.88;1440503;89;23534;-88
2021/11/13 01:11:48;;;;;;;50.60;33.90;;;;;;;-0.41;85.49;100911.20;1444214;90;21428;-89
2021/11/13 01:14:16;;;;;;;55.15;37.65;;;;;;;-0.44;85.61;100913.09;1447837;90;21840;-88
2021/11/13 01:16:43;;;;;;;45.35;31.05;;;;;;;-0.51;85.57;100923.77;1446393;90;21354;-89
2021/11/13 01:19:13;;;;;;;42.27;29.77;;;;;;;-0.58;86.01;100918.87;1448852;90;22285;-90
2021/11/13 01:21:41;;;;;;;41.55;30.90;;;;;;;-0.65;86.04;100920.89;1443207;90;21532;-90
2021/11/13 01:24:09;;;;;;;34.90;27.50;;;;;;;-0.68;86.19;100914.53;1448565;90;21414;-90
2021/11/13 01:26:37;;;;;;;41.77;30.23;;;;;;;-0.72;85.68;100914.24;1449530;90;21406;-90
2021/11/13 01:29:05;;;;;;;40.80;30.35;;;;;;;-0.76;85.76;100912.70;1450536;90;21361;-91
2021/11/13 01:31:32;;;;;;;43.98;31.62;;;;;;;-0.77;85.97;100916.22;1449227;90;21428;-91
2021/11/13 01:33:59;;;;;;;46.65;33.08;;;;;;;-0.79;85.80;100912.83;1447702;90;21473;-91
2021/11/13 01:36:26;;;;;;;43.45;31.68;;;;;;;-0.79;85.51;100911.52;1450432;90;21406;-91
2021/11/13 01:38:54;;;;;;;38.45;28.38;;;;;;;-0.83;85.34;100908.67;1447456;90;22357;-90
2021/11/13 01:41:22;;;;;;;44.48;29.60;;;;;;;-0.93;84.78;100901.69;1457048;90;21459;-89
2021/11/13 01:43:50;;;;;;;41.20;29.80;;;;;;;-0.98;84.85;100899.30;1457030;90;21391;-89
2021/11/13 01:46:17;;;;;;;42.13;28.98;;;;;;;-1.00;85.51;100901.56;1458217;90;22410;-90
2021/11/13 01:48:44;;;;;;;38.85;28.38;;;;;;;-1.04;85.33;100899.52;1450153;90;22240;-89
2021/11/13 01:51:27;;;;;;;45.00;29.40;;;;;;;-1.05;85.57;100892.64;1429824;91;21423;-90
2021/11/13 01:54:00;;;;;;;41.80;30.90;;;;;;;-1.01;85.76;100900.69;1420478;92;21584;-90
2021/11/13 01:56:27;;;;;;;45.05;31.50;;;;;;;-1.02;85.86;100897.71;1417708;92;21704;-90
2021/11/13 01:58:58;;;;;;;41.00;28.10;;;;;;;-1.00;86.08;100903.70;1435437;91;21406;-90
2021/11/13 02:01:25;;;;;;;33.18;22.85;;;;;;;-0.98;86.20;100904.50;1427351;91;22457;-90
2021/11/13 02:03:54;;;;;;;44.63;30.97;;;;;;;-0.98;86.25;100905.80;1417813;91;21496;-90
2021/11/13 02:06:21;;;;;;;46.18;31.30;;;;;;;-0.95;86.26;100906.97;1423088;91;21415;-90
2021/11/13 02:08:51;;;;;;;42.17;29.92;;;;;;;-0.95;86.29;100903.06;1426042;91;21363;-89
2021/11/13 02:11:22;;;;;;;47.08;30.10;;;;;;;-0.94;86.21;100904.75;1424527;91;23459;-89
2021/11/13 02:13:52;;;;;;;43.92;29.77;;;;;;;-0.93;86.12;100902.53;1420789;91;22473;-89
2021/11/13 02:16:20;;;;;;;44.60;31.23;;;;;;;-0.91;86.01;100901.18;1421773;91;21385;-89
2021/11/13 02:18:47;;;;;;;45.75;30.50;;;;;;;-0.91;85.69;100897.28;1428535;91;21458;-89
2021/11/13 02:21:17;;;;;;;42.05;29.95;;;;;;;-0.91;85.60;100902.48;1425497;91;22562;-88
2021/11/13 02:23:45;;;;;;;40.75;29.27;;;;;;;-0.95;85.29;100900.47;1429233;91;23003;-89
2021/11/13 02:26:13;;;;;;;45.92;30.95;;;;;;;-0.97;85.20;100902.27;1427190;91;21393;-89
2021/11/13 02:28:42;;;;;;;44.90;29.90;;;;;;;-0.99;85.37;100899.34;1421760;91;21488;-88
2021/11/13 02:31:12;;;;;;;45.88;30.35;;;;;;;-0.95;86.02;100901.77;1426626;91;21392;-88
2021/11/13 02:33:40;;;;;;;42.95;28.07;;;;;;;-0.91;86.17;100912.41;1420063;91;22405;-88
2021/11/13 02:36:11;;;;;;;40.30;29.15;;;;;;;-0.85;85.91;100913.08;1424390;91;21341;-89
2021/11/13 02:38:40;;;;;;;37.55;27.07;;;;;;;-0.75;85.89;100914.38;1424939;91;22042;-89
2021/11/13 02:41:11;;;;;;;34.70;25.25;;;;;;;-0.67;85.92;100916.20;1426110;91;22555;-88
2021/11/13 02:43:40;;;;;;;38.78;28.47;;;;;;;-0.62;85.77;100919.92;1403861;91;21577;-88
2021/11/13 02:46:09;;;;;;;36.65;26.90;;;;;;;-0.60;85.90;100917.66;1421708;91;21488;-88
2021/11/13 02:48:40;;;;;;;40.43;28.00;;;;;;;-0.54;86.15;100912.19;1414751;91;21959;-88
2021/11/13 02:51:09;;;;;;;38.92;24.72;;;;;;;-0.45;86.28;100904.45;1428041;91;21348;-88
2021/11/13 02:53:37;;;;;;;39.33;26.68;;;;;;;-0.37;86.26;100906.73;1419631;91;23340;-88
2021/11/13 02:56:07;;;;;;;39.88;27.87;;;;;;;-0.30;85.87;100908.15;1406932;91;21532;-88
2021/11/13 02:58:36;;;;;;;41.30;26.10;;;;;;;-0.26;85.88;100905.79;1413206;91;21451;-89
2021/11/13 03:01:13;;;;;;;40.35;24.95;;;;;;;-0.21;86.31;100901.70;1410817;91;21399;-88
2021/11/13 03:03:41;;;;;;;35.78;26.33;;;;;;;-0.19;86.32;100897.28;1413476;91;21466;-88
2021/11/13 03:06:14;;;;;;;39.90;23.60;;;;;;;-0.20;86.19;100899.05;1406717;91;21436;-90
2021/11/13 03:08:43;;;;;;;35.48;24.63;;;;;;;-0.18;86.23;100905.00;1412385;92;21488;-89
2021/11/13 03:11:14;;;;;;;35.50;24.82;;;;;;;-0.10;86.44;100905.52;1410301;91;21422;-88
2021/11/13 03:13:45;;;;;;;36.83;24.72;;;;;;;-0.09;86.17;100905.89;1412010;92;21414;-88
2021/11/13 03:16:15;;;;;;;35.00;24.67;;;;;;;-0.12;86.29;100908.63;1410038;91;22419;-87
2021/11/13 03:18:43;;;;;;;40.33;27.93;;;;;;;-0.14;86.24;100909.17;1410267;92;21444;-90
2021/11/13 03:21:12;;;;;;;36.38;27.30;;;;;;;-0.16;85.92;100897.98;1414537;92;22548;-89
2021/11/13 03:23:43;;;;;;;36.90;23.92;;;;;;;-0.15;86.49;100902.27;1418121;92;21585;-89
2021/11/13 03:26:23;;;;;;;43.48;28.57;;;;;;;-0.14;86.48;100903.14;1413045;91;22413;-90
2021/11/13 03:28:56;;;;;;;38.45;26.70;;;;;;;-0.14;86.53;100898.77;1410154;92;21407;-89
2021/11/13 03:31:24;;;;;;;43.47;26.13;;;;;;;-0.09;86.20;100892.88;1406589;92;21473;-90
2021/11/13 03:33:53;;;;;;;38.15;28.10;;;;;;;-0.07;86.28;100892.36;1413069;91;22058;-89
2021/11/13 03:36:22;;;;;;;53.28;31.48;;;;;;;-0.06;86.28;100886.27;1413150;91;22456;-89
2021/11/13 03:38:50;;;;;;;40.08;28.60;;;;;;;-0.04;86.47;100880.98;1412633;92;21683;-90
2021/11/13 03:41:19;;;;;;;39.40;27.13;;;;;;;0.01;86.15;100887.30;1409994;92;21541;-89
2021/11/13 03:43:48;;;;;;;44.05;25.65;;;;;;;0.02;85.94;100879.86;1407668;92;22156;-89
2021/11/13 03:46:16;;;;;;;42.93;28.98;;;;;;;0.01;85.69;100878.18;1409471;92;21392;-89
2021/11/13 03:48:43;;;;;;;35.25;23.92;;;;;;;0.01;85.58;100880.78;1407591;93;21451;-89
2021/11/13 03:51:10;;;;;;;37.42;24.65;;;;;;;-0.01;85.40;100883.44;1404415;93;22934;-90
2021/11/13 03:53:38;;;;;;;39.40;26.00;;;;;;;-0.01;85.22;100880.38;1405396;93;22220;-89
2021/11/13 03:56:05;;;;;;;29.90;21.73;;;;;;;-0.03;85.20;100874.42;1408151;93;21406;-89
2021/11/13 03:58:32;;;;;;;33.77;22.03;;;;;;;-0.05;85.07;100871.03;1399204;92;21510;-89
2021/11/13 04:01:00;;;;;;;32.88;22.35;;;;;;;-0.05;84.82;100876.70;1404317;93;22133;-89
2021/11/13 04:03:27;;;;;;;32.95;20.80;;;;;;;-0.07;84.53;100868.11;1401776;93;21400;-89
2021/11/13 04:05:54;;;;;;;28.95;22.30;;;;;;;-0.11;84.58;100870.01;1401657;93;21458;-90
2021/11/13 04:08:21;;;;;;;32.53;23.77;;;;;;;-0.12;84.50;100870.91;1398007;93;21377;-90
2021/11/13 04:10:49;;;;;;;31.97;22.30;;;;;;;-0.14;84.44;100873.22;1403302;93;21391;-89
2021/11/13 04:13:17;;;;;;;31.07;23.15;;;;;;;-0.19;84.19;100863.00;1402203;93;21362;-90
2021/11/13 04:15:44;;;;;;;32.63;23.07;;;;;;;-0.24;84.01;100859.75;1400138;92;21436;-90
2021/11/13 04:18:11;;;;;;;35.65;24.47;;;;;;;-0.28;83.83;100859.52;1402471;93;21527;-90
2021/11/13 04:20:38;;;;;;;30.88;23.67;;;;;;;-0.33;83.63;100856.27;1403817;93;22397;-91
2021/11/13 04:23:05;;;;;;;38.65;26.05;;;;;;;-0.34;83.49;100858.48;1401651;93;21413;-89
2021/11/13 04:25:33;;;;;;;31.82;22.13;;;;;;;-0.36;83.52;100855.09;1403259;93;21465;-90
2021/11/13 04:28:01;;;;;;;35.28;23.83;;;;;;;-0.41;83.92;100859.19;1401204;92;21407;-89
2021/11/13 04:30:28;;;;;;;39.78;22.98;;;;;;;-0.47;83.58;100856.40;1402829;92;21938;-90
2021/11/13 04:32:56;;;;;;;33.50;24.18;;;;;;;-0.44;83.42;100855.88;1401497;92;22456;-90
2021/11/13 04:37:57;;;;;;;35.85;24.40;;;;;;;-0.47;83.94;100861.59;1412882;93;22067;-90
2021/11/13 04:40:32;;;;;;;39.85;25.57;;;;;;;-0.47;83.71;100864.66;1409260;93;21533;-90
2021/11/13 04:43:00;;;;;;;38.67;25.30;;;;;;;-0.43;83.62;100870.56;1400235;93;22431;-90
2021/11/13 04:45:27;;;;;;;44.90;30.85;;;;;;;-0.53;83.11;100881.37;1406584;93;21383;-89
2021/11/13 04:47:55;;;;;;;48.75;32.98;;;;;;;-0.59;83.25;100877.73;1406565;93;21354;-88
2021/11/13 04:50:25;;;;;;;42.25;29.80;;;;;;;-0.59;83.44;100881.64;1405097;93;22433;-88
2021/11/13 04:52:53;;;;;;;49.35;28.00;;;;;;;-0.58;83.58;100887.67;1400813;93;21399;-90
2021/11/13 04:55:20;;;;;;;39.75;27.40;;;;;;;-0.61;83.47;100886.51;1398578;93;21413;-90
2021/11/13 04:57:48;;;;;;;43.33;28.30;;;;;;;-0.64;84.37;100880.98;1407834;92;21508;-89
2021/11/13 05:00:19;;;;;;;41.28;26.52;;;;;;;-0.63;84.91;100885.29;1416141;92;22293;-89
2021/11/13 05:02:46;;;;;;;47.35;29.32;;;;;;;-0.60;84.67;100886.45;1407324;92;21435;-89
2021/11/13 05:05:14;;;;;;;41.85;25.60;;;;;;;-0.58;84.39;100884.61;1414078;92;21324;-90
2021/11/13 05:07:41;;;;;;;42.13;27.73;;;;;;;-0.60;84.10;100890.36;1410542;92;21368;-90
2021/11/13 05:10:10;;;;;;;39.92;27.50;;;;;;;-0.62;84.02;100894.77;1404471;92;21567;-89
2021/11/13 05:12:38;;;;;;;40.70;26.62;;;;;;;-0.59;84.07;100891.20;1409353;92;22449;-89
2021/11/13 05:15:07;;;;;;;35.15;25.05;;;;;;;-0.59;84.17;100898.53;1408274;92;22596;-89
2021/11/13 05:17:35;;;;;;;38.88;24.18;;;;;;;-0.59;84.35;100902.44;1390369;92;21546;-89
2021/11/13 05:20:08;;;;;;;35.05;23.38;;;;;;;-0.57;84.53;100907.13;1408718;92;21518;-89
2021/11/13 05:22:38;;;;;;;38.42;25.20;;;;;;;-0.56;84.76;100902.30;1424743;92;21548;-90
2021/11/13 05:25:08;;;;;;;36.20;25.15;;;;;;;-0.55;85.33;100894.87;1431031;92;21347;-92
2021/11/13 05:27:36;;;;;;;36.98;23.98;;;;;;;-0.58;85.87;100898.08;1416132;92;21642;-91
2021/11/13 05:30:08;;;;;;;38.13;24.25;;;;;;;-0.57;85.36;100900.63;1409011;92;23204;-89
2021/11/13 05:32:35;;;;;;;30.02;21.48;;;;;;;-0.56;85.61;100901.47;1419894;91;22492;-88
2021/11/13 05:35:04;;;;;;;32.48;24.02;;;;;;;-0.55;85.52;100900.08;1415246;92;21429;-90
2021/11/13 05:37:31;;;;;;;38.38;24.05;;;;;;;-0.53;85.58;100910.44;1422699;91;22361;-91
2021/11/13 05:39:58;;;;;;;30.27;20.27;;;;;;;-0.56;85.01;100902.77;1419527;90;21398;-89
2021/11/13 05:42:25;;;;;;;33.00;20.68;;;;;;;-0.60;84.90;100900.76;1417394;91;21372;-91
2021/11/13 05:44:53;;;;;;;32.13;21.90;;;;;;;-0.58;85.58;100903.27;1429589;91;21394;-91
2021/11/13 05:47:20;;;;;;;29.95;20.88;;;;;;;-0.56;85.68;100908.80;1420978;91;21393;-90
2021/11/13 05:49:47;;;;;;;34.20;22.58;;;;;;;-0.54;85.61;100904.39;1428617;91;22310;-92
2021/11/13 05:52:14;;;;;;;29.25;20.62;;;;;;;-0.51;85.61;100900.36;1431291;91;21392;-92
2021/11/13 05:54:41;;;;;;;33.42;23.35;;;;;;;-0.42;86.00;100899.58;1436020;91;21431;-92
2021/11/13 05:57:09;;;;;;;33.88;22.55;;;;;;;-0.37;85.64;100901.53;1428611;90;21393;-91
2021/11/13 05:59:36;;;;;;;34.77;23.10;;;;;;;-0.35;85.55;100902.29;1422290;92;21321;-91
2021/11/13 06:02:04;;;;;;;37.28;23.92;;;;;;;-0.33;85.02;100899.17;1423622;92;22302;-88
2021/11/13 06:04:31;;;;;;;35.95;24.70;;;;;;;-0.32;85.18;100907.36;1421941;92;21438;-90
2021/11/13 06:07:02;;;;;;;48.92;31.97;;;;;;;-0.30;85.50;100903.78;1421093;91;21387;-90
2021/11/13 06:09:30;;;;;;;44.47;29.40;;;;;;;-0.21;85.66;100904.30;1411776;92;21387;-90
2021/11/13 06:11:58;;;;;;;45.03;28.42;;;;;;;-0.15;85.31;100907.47;1420474;91;21503;-89
2021/11/13 06:14:25;;;;;;;42.43;27.98;;;;;;;-0.10;85.08;100907.28;1418890;91;21364;-90
2021/11/13 06:16:52;;;;;;;44.25;28.95;;;;;;;-0.09;84.85;100904.59;1425071;92;21438;-91
2021/11/13 06:19:19;;;;;;;41.25;26.15;;;;;;;-0.05;84.98;100909.23;1421845;91;21409;-92
2021/11/13 06:21:46;;;;;;;41.50;28.93;;;;;;;-0.02;84.72;100915.13;1423598;92;21409;-91
2021/11/13 06:24:14;;;;;;;43.00;28.17;;;;;;;-0.01;84.70;100915.97;1408756;91;21556;-91
2021/11/13 06:26:41;;;;;;;44.57;31.90;;;;;;;0.02;84.52;100924.94;1424497;91;22766;-90
2021/11/13 06:29:08;;;;;;;44.27;29.93;;;;;;;0.01;84.12;100933.67;1440328;90;21781;-92
2021/11/13 06:31:36;;;;;;;42.23;26.63;;;;;;;0.01;83.96;100933.67;1441913;90;21956;-91
2021/11/13 06:34:03;;;;;;;37.95;27.30;;;;;;;0.02;83.88;100938.42;1444120;90;22025;-91
2021/11/13 06:36:30;;;;;;;37.55;27.13;;;;;;;-0.04;83.38;100937.77;1444813;90;21362;-91
2021/11/13 06:38:58;;;;;;;36.13;27.60;;;;;;;-0.09;83.48;100943.62;1445208;90;22522;-90
2021/11/13 06:41:29;;;;;;;45.60;30.08;;;;;;;-0.15;83.30;100933.48;1441151;90;23437;-90
2021/11/13 06:43:54;;;;;;;41.37;28.85;;;;;;;-0.14;83.61;100931.30;1449522;88;21377;-91
2021/11/13 06:46:21;;;;;;;42.47;29.73;;;;;;;-0.15;83.34;100927.44;1443090;90;22433;-90
2021/11/13 06:48:48;;;;;;;44.63;30.33;;;;;;;-0.12;83.42;100927.30;1439982;90;21505;-90
2021/11/13 06:51:16;;;;;;;48.13;30.50;;;;;;;-0.06;83.52;100934.84;1444792;90;21623;-91
2021/11/13 06:53:45;;;;;;;48.10;31.80;;;;;;;-0.04;83.47;100935.16;1438202;90;22354;-90
2021/11/13 06:56:12;;;;;;;49.83;32.90;;;;;;;-0.01;83.59;100949.34;1439088;90;21423;-91
2021/11/13 06:58:39;;;;;;;48.40;32.50;;;;;;;0.03;83.71;100947.91;1436902;90;21562;-91
2021/11/13 07:01:07;;;;;;;43.87;31.12;;;;;;;0.07;83.90;100948.17;1444462;89;21673;-90
2021/11/13 07:03:34;;;;;;;42.75;29.82;;;;;;;0.07;83.38;100956.82;1460012;89;21354;-91
2021/11/13 07:06:02;;;;;;;44.90;30.90;;;;;;;0.05;83.28;100960.40;1460223;89;21362;-89
2021/11/13 07:08:29;;;;;;;44.87;31.67;;;;;;;0.01;83.14;100970.11;1454922;88;23723;-91
2021/11/13 07:10:56;;;;;;;49.53;32.58;;;;;;;-0.06;83.09;100969.97;1447560;89;22451;-90
2021/11/13 07:13:25;;;;;;;52.80;33.43;;;;;;;-0.02;83.62;100962.44;1446370;89;21376;-88
2021/11/13 07:15:53;;;;;;;48.40;31.80;;;;;;;0.04;83.98;100969.13;1448647;89;21592;-88
2021/11/13 07:18:21;;;;;;;49.43;30.33;;;;;;;0.03;83.79;100960.92;1433755;89;21787;-90
2021/11/13 07:20:56;;;;;;;51.20;33.67;;;;;;;-0.02;83.41;100961.98;1451033;89;21641;-89
2021/11/13 07:23:24;;;;;;;56.37;35.37;;;;;;;-0.04;83.28;100962.48;1436384;89;22113;-89
2021/11/13 07:25:51;;;;;;;50.15;34.38;;;;;;;-0.09;83.35;100965.73;1419821;89;21529;-91
2021/11/13 07:28:21;;;;;;;53.93;35.20;;;;;;;-0.14;83.36;100976.83;1450406;89;21421;-89
2021/11/13 07:30:49;;;;;;;50.10;33.63;;;;;;;-0.13;83.70;100960.75;1457353;89;21608;-85
2021/11/13 07:33:17;;;;;;;51.85;35.33;;;;;;;-0.16;83.83;100969.99;1463140;89;22186;-88
2021/11/13 07:35:47;;;;;;;53.23;33.83;;;;;;;-0.15;84.23;100959.50;1448659;89;21450;-87
2021/11/13 07:38:14;;;;;;;52.00;33.27;;;;;;;-0.07;84.40;100966.53;1438316;89;21603;-87
2021/11/13 07:40:43;;;;;;;51.80;32.10;;;;;;;0.01;84.38;100958.39;1450824;89;22519;-88
2021/11/13 07:43:10;;;;;;;52.53;35.80;;;;;;;0.04;84.04;100959.56;1450306;89;21697;-86
2021/11/13 07:45:40;;;;;;;59.80;36.33;;;;;;;0.06;83.97;100969.45;1454985;88;21639;-87
2021/11/13 07:48:07;;;;;;;49.83;34.60;;;;;;;0.04;83.97;100966.53;1451984;89;21613;-86
2021/11/13 07:50:36;;;;;;;60.27;37.30;;;;;;;-0.02;83.82;100961.98;1455301;89;21629;-86
2021/11/13 07:53:07;;;;;;;57.13;37.48;;;;;;;-0.07;84.27;100963.92;1453181;89;21405;-86
2021/11/13 07:55:35;;;;;;;58.70;35.10;;;;;;;-0.13;84.26;100977.20;1460270;89;21689;-86
2021/11/13 07:58:03;;;;;;;63.20;36.50;;;;;;;-0.11;84.91;100965.45;1453600;89;21532;-86
2021/11/13 08:00:31;;;;;;;55.27;37.00;;;;;;;-0.09;85.59;100969.64;1459880;90;22605;-86
2021/11/13 08:02:59;;;;;;;68.43;38.90;;;;;;;-0.05;85.90;100967.31;1451423;90;22599;-87
2021/11/13 08:05:26;;;;;;;58.83;38.47;;;;;;;0.03;85.66;100973.92;1453967;90;21912;-87
2021/11/13 08:07:55;;;;;;;66.00;43.23;;;;;;;0.00;85.70;100972.33;1451023;90;21633;-86
2021/11/13 08:10:24;;;;;;;70.15;43.45;;;;;;;0.04;85.96;100966.07;1455928;90;22095;-85
2021/11/13 08:12:51;;;;;;;63.47;42.47;;;;;;;0.21;86.28;100974.44;1459326;90;21370;-86
2021/11/13 08:15:19;;;;;;;61.17;39.40;;;;;;;0.28;85.83;100971.94;1439300;90;23000;-85
2021/11/13 08:17:47;;;;;;;63.97;40.53;;;;;;;0.27;85.45;100967.66;1440040;90;22544;-86
2021/11/13 08:20:15;;;;;;;63.13;40.27;;;;;;;0.35;85.56;100963.41;1440317;90;21607;-86
2021/11/13 08:22:43;;;;;;;59.63;41.00;;;;;;;0.47;85.82;100973.27;1460380;90;22263;-85
2021/11/13 08:25:13;;;;;;;58.03;38.93;;;;;;;0.53;85.60;100971.68;1449925;90;22565;-86
2021/11/13 08:27:43;;;;;;;66.87;43.35;;;;;;;0.53;85.04;100972.98;1449142;90;21587;-87
2021/11/13 08:30:12;;;;;;;69.07;42.87;;;;;;;0.47;85.07;100970.66;1450353;88;22477;-86
2021/11/13 08:32:41;;;;;;;72.57;45.60;;;;;;;0.48;85.28;100968.90;1444585;90;21595;-86
2021/11/13 08:35:10;;;;;;;64.43;42.70;;;;;;;0.51;85.73;100972.20;1453195;90;21812;-84
2021/11/13 08:37:40;;;;;;;78.33;45.13;;;;;;;0.54;85.46;100971.22;1454002;90;21693;-84
2021/11/13 08:40:15;;;;;;;68.00;44.07;;;;;;;0.58;85.45;100968.87;1452743;90;21607;-85
2021/11/13 08:42:45;;;;;;;63.63;41.03;;;;;;;0.59;85.48;100970.09;1451055;89;21918;-85
2021/11/13 08:45:14;;;;;;;64.13;42.80;;;;;;;0.65;85.31;100971.57;1448413;90;21430;-87
2021/11/13 08:47:43;;;;;;;67.20;45.97;;;;;;;0.63;85.14;100972.09;1451707;90;21626;-84
2021/11/13 08:50:18;;;;;;;77.07;47.43;;;;;;;0.61;85.53;100976.55;1453830;90;21630;-84
2021/11/13 08:52:48;;;;;;;61.97;40.83;;;;;;;0.64;85.78;100978.55;1451118;90;21688;-84
2021/11/13 08:55:16;;;;;;;63.68;41.45;;;;;;;0.70;85.94;100979.19;1465032;90;21712;-84
2021/11/13 08:57:46;;;;;;;72.90;47.43;;;;;;;0.73;86.20;100979.88;1442486;90;22242;-84
2021/11/13 09:00:18;;;;;;;65.33;40.73;;;;;;;0.79;86.45;100980.89;1454325;90;21440;-86
2021/11/13 09:02:46;;;;;;;59.10;38.03;;;;;;;0.81;86.16;100977.77;1414362;91;21811;-85
2021/11/13 09:05:13;;;;;;;57.60;37.00;;;;;;;0.79;86.34;100978.30;1406197;92;21572;-86
2021/11/13 09:07:42;;;;;;;54.93;37.30;;;;;;;0.86;86.89;100977.10;1403654;92;21690;-85
2021/11/13 09:10:10;;;;;;;52.43;35.77;;;;;;;0.93;86.63;100975.51;1409639;93;21552;-85
2021/11/13 09:12:38;;;;;;;63.57;38.73;;;;;;;0.99;86.53;100973.91;1397998;93;21686;-85
2021/11/13 09:15:11;;;;;;;57.63;36.10;;;;;;;1.13;86.76;100981.92;1409258;92;21651;-92
2021/11/13 09:17:41;;;;;;;49.97;35.47;;;;;;;1.21;86.69;100983.70;1405515;93;21644;-89
2021/11/13 09:20:09;;;;;;;43.57;31.07;;;;;;;1.26;86.63;100992.59;1399712;93;21747;-88
2021/11/13 09:22:36;;;;;;;43.17;29.40;;;;;;;1.27;86.38;100995.59;1406023;92;21675;-88
2021/11/13 09:25:10;;;;;;;44.20;30.63;;;;;;;1.30;86.78;100988.47;1406611;92;21804;-88
2021/11/13 09:27:40;;;;;;;44.60;29.47;;;;;;;1.35;86.39;100988.22;1406950;92;21618;-88
2021/11/13 09:38:17;;;;;;;47.50;33.17;;;;;;;1.33;86.30;100990.92;1374852;89;24031;-88
2021/11/13 09:40:44;;;;;;;51.67;33.13;;;;;;;1.33;86.45;100998.74;1398518;93;21682;-88
2021/11/13 09:43:11;;;;;;;57.70;28.53;;;;;;;1.34;86.24;100997.81;1430352;90;22212;-88
2021/11/13 09:45:39;;;;;;;41.13;29.73;;;;;;;1.24;86.70;100996.59;1442524;90;21655;-87
2021/11/13 09:48:07;;;;;;;50.13;30.20;;;;;;;1.17;86.71;100988.66;1442642;90;21691;-88
2021/11/13 09:50:40;;;;;;;43.70;29.27;;;;;;;1.15;87.23;100986.58;1449768;89;21718;-87
2021/11/13 09:53:09;;;;;;;48.57;35.20;;;;;;;1.16;87.71;100987.45;1435306;90;21799;-88
2021/11/13 09:55:36;;;;;;;44.97;30.77;;;;;;;1.16;87.41;100983.07;1440835;90;21850;-88
2021/11/13 09:58:03;;;;;;;41.70;28.13;;;;;;;1.16;88.08;100988.28;1453527;90;21693;-87
2021/11/13 10:00:36;;;;;;;48.10;30.57;;;;;;;1.13;87.77;100988.44;1445802;90;21521;-88
2021/11/13 10:03:06;;;;;;;48.53;34.47;;;;;;;1.16;87.90;100985.67;1406600;93;21519;-88
2021/11/13 10:05:34;;;;;;;65.50;43.58;;;;;;;1.25;87.92;100987.84;1401846;93;21490;-88
2021/11/13 10:08:02;;;;;;;48.77;34.40;;;;;;;1.28;87.89;100982.47;1392917;93;21369;-88
2021/11/13 10:10:39;;;;;;;43.57;30.67;;;;;;;1.29;87.78;100988.05;1406012;93;21451;-87
2021/11/13 10:13:35;;;;;;;44.33;29.77;;;;;;;1.31;87.61;100990.14;1386320;93;21581;-88
2021/11/13 10:16:11;;;;;;;48.43;33.57;;;;;;;1.33;87.71;100984.87;1399779;93;21443;-90
2021/11/13 10:18:43;;;;;;;44.10;31.07;;;;;;;1.34;87.53;100984.77;1400793;93;22603;-88
2021/11/13 10:21:22;;;;;;;59.20;37.03;;;;;;;1.43;87.68;100978.26;1398364;93;22632;-88
2021/11/13 10:24:04;;;;;;;74.23;44.30;;;;;;;1.47;87.75;100981.59;1399190;93;21658;-87
2021/11/13 10:26:36;;;;;;;56.80;33.53;;;;;;;1.57;87.68;100980.19;1405018;93;21675;-87
2021/11/13 10:29:19;;;;;;;48.43;33.30;;;;;;;1.62;87.57;100977.36;1399166;92;21701;-88
2021/11/13 10:31:57;;;;;;;48.10;35.27;;;;;;;1.65;87.43;100980.66;1402536;93;21550;-88
2021/11/13 10:34:34;;;;;;;39.27;28.97;;;;;;;1.69;87.50;100976.95;1406701;91;21572;-88
2021/11/13 10:37:09;;;;;;;50.70;31.87;;;;;;;1.62;86.78;100978.20;1388341;93;21574;-88
2021/11/13 10:39:41;;;;;;;46.70;30.57;;;;;;;1.64;86.93;100978.98;1416438;91;21556;-87
2021/11/13 10:42:15;;;;;;;49.33;33.03;;;;;;;1.63;87.00;100979.87;1419712;92;21589;-88
2021/11/13 10:44:59;;;;;;;45.67;28.37;;;;;;;1.71;87.11;100977.73;1411222;92;21787;-91
2021/11/13 10:47:34;;;;;;;41.80;28.83;;;;;;;1.72;87.07;100974.19;1405489;91;21739;-91
2021/11/13 10:50:19;;;;;;;69.43;38.63;;;;;;;1.73;86.79;100969.37;1401049;92;21571;-89
2021/11/13 10:53:09;;;;;;;41.20;28.13;;;;;;;1.73;86.84;100962.85;1399101;92;21706;-89
2021/11/13 10:56:15;;;;;;;39.90;25.87;;;;;;;1.80;86.93;100962.91;1414850;92;21668;-89
2021/11/13 10:58:57;;;;;;;41.70;26.67;;;;;;;1.84;86.88;100967.50;1375836;93;23813;-89
2021/11/13 11:01:38;;;;;;;47.13;30.37;;;;;;;1.89;86.27;100959.45;1370779;94;21894;-90
2021/11/13 11:04:17;;;;;;;42.83;27.13;;;;;;;1.82;85.94;100955.48;1380198;94;21605;-89
2021/11/13 11:06:49;;;;;;;39.47;25.23;;;;;;;1.77;86.00;100948.71;1370820;94;21657;-88
2021/11/13 11:09:42;;;;;;;40.70;26.73;;;;;;;1.76;86.35;100948.81;1367184;94;21565;-88
2021/11/13 11:12:17;;;;;;;39.47;28.00;;;;;;;1.76;86.48;100952.26;1367822;93;21797;-88
2021/11/13 11:14:48;;;;;;;36.33;26.63;;;;;;;1.76;86.72;100949.64;1378533;94;21642;-88
2021/11/13 11:17:20;;;;;;;41.60;27.70;;;;;;;1.76;86.77;100941.81;1388806;94;21639;-87
2021/11/13 11:19:50;;;;;;;37.83;27.30;;;;;;;1.79;86.91;100942.13;1384941;94;21486;-88
2021/11/13 11:22:20;;;;;;;38.02;28.30;;;;;;;1.86;87.31;100949.17;1393931;94;22727;-89
2021/11/13 11:24:58;;;;;;;33.80;25.53;;;;;;;1.87;87.37;100943.88;1374455;94;21479;-89
2021/11/13 11:27:36;;;;;;;35.57;23.23;;;;;;;1.85;87.29;100944.41;1393988;94;21737;-88
2021/11/13 11:30:17;;;;;;;37.90;24.90;;;;;;;1.84;87.21;100943.17;1389950;94;21824;-90
2021/11/13 11:32:51;;;;;;;44.03;28.67;;;;;;;1.81;87.30;100937.64;1395582;93;22535;-91